Time;durP1;ratioP1;P1;durP2;ratioP2;P2;SDS_P1;SDS_P2;PMS_P1;PMS_P2;Temp;Humidity;BMP_temperature;BMP_pressure;BME280_temperature;BME280_humidity;BME280_pressure;Samples;Min_cycle;Max_cycle;Signal;HPM_P1;HPM_P2
2022/07/23 00:01:23;;;;;;;5.35;1.63;;;20.50;99.90;;;;;;5087874;28;20027;-75
2022/07/23 00:03:49;;;;;;;1.42;1.38;;;20.40;99.90;;;;;;5104935;28;20047;-75
2022/07/23 00:06:15;;;;;;;1.60;1.50;;;19.40;99.90;;;;;;5087126;28;20039;-74
2022/07/23 00:08:41;;;;;;;1.77;1.40;;;20.30;99.90;;;;;;5105393;28;20020;-74
2022/07/23 00:11:07;;;;;;;3.28;2.05;;;20.30;99.90;;;;;;5103648;28;20431;-74
2022/07/23 00:13:32;;;;;;;7.50;2.00;;;20.30;99.90;;;;;;5087034;28;20368;-75
2022/07/23 00:15:58;;;;;;;2.33;1.42;;;20.30;99.90;;;;;;5104935;28;20020;-75
2022/07/23 00:18:24;;;;;;;4.28;2.40;;;20.30;99.90;;;;;;5104589;28;20020;-74
2022/07/23 00:20:49;;;;;;;1.88;1.70;;;20.30;99.90;;;;;;5086640;28;20024;-74
2022/07/23 00:23:15;;;;;;;1.70;1.60;;;20.30;99.90;;;;;;5104560;28;20012;-75
2022/07/23 00:25:41;;;;;;;3.72;2.00;;;20.30;99.90;;;;;;5104893;28;20149;-74
2022/07/23 00:28:06;;;;;;;1.00;1.00;;;20.30;99.90;;;;;;5104899;28;20239;-75
2022/07/23 00:30:33;;;;;;;2.15;1.42;;;19.60;99.90;;;;;;5085726;28;20312;-74
2022/07/23 00:33:03;;;;;;;2.95;1.50;;;20.20;99.90;;;;;;5085790;28;20024;-75
2022/07/23 00:35:31;;;;;;;2.88;1.95;;;20.10;99.90;;;;;;5086171;28;20092;-74
2022/07/23 00:37:59;;;;;;;1.20;1.20;;;20.20;99.90;;;;;;5086133;28;20024;-74
2022/07/23 00:40:25;;;;;;;1.55;1.40;;;20.10;99.90;;;;;;5085962;28;20024;-74
2022/07/23 00:42:54;;;;;;;1.52;1.10;;;20.10;99.90;;;;;;5104089;28;20328;-74
2022/07/23 00:45:19;;;;;;;5.68;2.17;;;20.00;99.90;;;;;;5085540;28;20035;-75
2022/07/23 00:47:46;;;;;;;1.67;1.58;;;20.00;99.90;;;;;;5085880;28;20058;-74
2022/07/23 00:50:12;;;;;;;3.30;1.95;;;20.00;99.90;;;;;;5104378;28;20095;-74
2022/07/23 00:52:39;;;;;;;1.38;1.27;;;20.10;99.90;;;;;;5104003;28;20016;-74
2022/07/23 00:55:07;;;;;;;2.20;1.85;;;20.10;99.90;;;;;;5104347;28;20078;-75
2022/07/23 00:57:33;;;;;;;1.75;1.55;;;20.10;99.90;;;;;;5103760;28;20020;-75
2022/07/23 00:59:59;;;;;;;0.95;0.95;;;20.10;99.90;;;;;;5104209;28;20354;-74
2022/07/23 01:02:26;;;;;;;3.45;1.25;;;20.10;99.90;;;;;;5085691;28;20032;-75
2022/07/23 01:04:52;;;;;;;2.80;1.65;;;20.10;99.90;;;;;;5104071;28;20027;-74
2022/07/23 01:07:19;;;;;;;1.38;1.35;;;20.20;99.90;;;;;;5085901;28;20095;-74
2022/07/23 01:09:45;;;;;;;2.20;1.45;;;20.20;99.90;;;;;;5104016;28;20020;-75
2022/07/23 01:12:11;;;;;;;3.55;2.28;;;20.20;99.90;;;;;;5085704;28;20024;-75
2022/07/23 01:14:37;;;;;;;3.50;1.90;;;20.10;99.90;;;;;;5085558;28;20029;-75
2022/07/23 01:17:02;;;;;;;1.65;1.55;;;20.00;99.90;;;;;;5085543;28;20028;-74
2022/07/23 01:19:28;;;;;;;1.25;1.15;;;19.90;99.90;;;;;;5103517;28;20032;-76
2022/07/23 01:21:56;;;;;;;2.63;1.95;;;19.80;99.90;;;;;;5103578;28;20083;-75
2022/07/23 01:24:22;;;;;;;2.95;1.75;;;19.80;99.90;;;;;;5085185;28;20220;-74
2022/07/23 01:26:48;;;;;;;1.55;1.45;;;19.70;99.90;;;;;;5103993;28;20032;-74
2022/07/23 01:29:14;;;;;;;2.17;2.00;;;19.60;99.90;;;;;;5085845;28;20250;-75
2022/07/23 01:31:41;;;;;;;1.83;1.70;;;19.60;99.90;;;;;;5086331;28;20105;-74
2022/07/23 01:34:07;;;;;;;1.80;1.25;;;19.50;99.90;;;;;;5103374;28;20735;-75
2022/07/23 01:36:34;;;;;;;2.28;1.63;;;19.60;99.90;;;;;;5103276;28;20024;-75
2022/07/23 01:38:59;;;;;;;1.67;1.58;;;19.50;99.90;;;;;;5084768;28;20087;-75
2022/07/23 01:41:25;;;;;;;1.10;1.10;;;19.50;99.90;;;;;;5104087;28;20020;-75
2022/07/23 01:43:51;;;;;;;7.80;2.92;;;19.50;99.90;;;;;;5103020;28;20030;-75
2022/07/23 01:46:17;;;;;;;3.42;1.85;;;;;;;;;;5103598;28;20036;-75
2022/07/23 01:48:42;;;;;;;2.38;1.65;;;19.40;99.90;;;;;;5102820;28;20023;-75
2022/07/23 01:51:08;;;;;;;1.95;1.65;;;19.40;99.90;;;;;;5084895;28;20061;-75
2022/07/23 01:53:34;;;;;;;1.80;1.70;;;19.40;99.90;;;;;;5084740;28;20051;-75
2022/07/23 01:56:01;;;;;;;1.58;1.48;;;19.40;99.90;;;;;;5103483;28;20255;-75
2022/07/23 01:58:27;;;;;;;2.50;1.95;;;19.40;99.90;;;;;;5103094;28;20035;-74
2022/07/23 02:00:54;;;;;;;2.03;1.77;;;19.40;99.90;;;;;;5103779;28;20039;-75
2022/07/23 02:03:20;;;;;;;1.90;1.75;;;19.40;99.90;;;;;;5084729;28;20020;-74
2022/07/23 02:05:46;;;;;;;2.10;1.33;;;19.40;99.90;;;;;;5102760;28;20024;-74
2022/07/23 02:08:12;;;;;;;3.38;2.53;;;19.40;99.90;;;;;;5084348;28;20073;-74
2022/07/23 02:10:37;;;;;;;2.47;2.28;;;19.40;99.90;;;;;;5102554;28;20122;-75
2022/07/23 02:13:03;;;;;;;2.28;2.08;;;;;;;;;;5084664;28;20027;-75
2022/07/23 02:15:29;;;;;;;4.00;2.10;;;19.50;99.90;;;;;;5084652;28;20023;-74
2022/07/23 02:17:55;;;;;;;2.17;1.98;;;19.50;99.90;;;;;;5102411;28;20038;-75
2022/07/23 02:20:22;;;;;;;4.43;2.35;;;19.50;99.90;;;;;;5102381;28;20245;-75
2022/07/23 02:22:48;;;;;;;2.63;2.38;;;19.50;99.90;;;;;;5102422;28;20133;-75
2022/07/23 02:25:14;;;;;;;3.00;2.00;;;19.50;99.90;;;;;;5102343;28;20032;-75
2022/07/23 02:27:40;;;;;;;2.72;1.77;;;19.50;99.90;;;;;;5102481;28;20032;-75
2022/07/23 02:30:06;;;;;;;1.77;1.42;;;19.50;99.90;;;;;;5084675;28;20220;-75
2022/07/23 02:32:32;;;;;;;1.75;1.70;;;19.50;99.90;;;;;;5102177;28;20032;-75
2022/07/23 02:34:58;;;;;;;1.73;1.63;;;19.50;99.90;;;;;;5102535;28;20107;-75
2022/07/23 02:37:24;;;;;;;2.30;2.10;;;19.40;99.90;;;;;;5084328;28;20052;-74
2022/07/23 02:39:50;;;;;;;3.70;1.65;;;19.40;99.90;;;;;;5102285;28;20027;-74
2022/07/23 02:42:16;;;;;;;2.80;1.25;;;19.40;99.90;;;;;;5102004;28;20020;-75
2022/07/23 02:44:41;;;;;;;3.05;2.38;;;19.40;99.90;;;;;;5083737;28;20248;-75
2022/07/23 02:47:07;;;;;;;2.30;2.13;;;19.30;99.90;;;;;;5084118;28;20032;-75
2022/07/23 02:49:33;;;;;;;3.45;2.28;;;19.40;99.90;;;;;;5102162;28;20322;-75
2022/07/23 02:52:02;;;;;;;2.95;1.63;;;19.40;99.90;;;;;;5102839;28;20024;-75
2022/07/23 02:54:28;;;;;;;3.30;2.03;;;;;;;;;;5103521;28;20103;-75
2022/07/23 02:56:54;;;;;;;2.53;2.33;;;19.40;99.90;;;;;;5106644;28;20020;-75
2022/07/23 02:59:19;;;;;;;2.60;1.77;;;19.30;99.90;;;;;;5088480;28;20020;-75
2022/07/23 03:01:45;;;;;;;3.90;2.13;;;19.40;99.90;;;;;;5088909;28;20027;-75
2022/07/23 03:04:11;;;;;;;2.03;1.90;;;19.40;99.90;;;;;;5105861;28;20020;-75
2022/07/23 03:06:37;;;;;;;3.00;2.30;;;19.20;99.90;;;;;;5087729;28;20040;-75
2022/07/23 03:09:04;;;;;;;2.05;1.90;;;19.20;99.90;;;;;;5105680;28;20087;-75
2022/07/23 03:11:29;;;;;;;2.75;1.80;;;19.10;99.90;;;;;;5106086;28;20032;-75
2022/07/23 03:13:55;;;;;;;3.08;2.47;;;19.10;99.90;;;;;;5106025;28;20030;-75
2022/07/23 03:16:21;;;;;;;4.35;1.95;;;19.10;99.90;;;;;;5087441;28;20020;-74
2022/07/23 03:18:47;;;;;;;5.80;2.53;;;;;;;;;;5106104;28;20038;-75
2022/07/23 03:21:12;;;;;;;5.95;2.83;;;18.90;99.90;;;;;;5105944;28;20308;-75
2022/07/23 03:23:38;;;;;;;6.97;1.83;;;18.90;99.90;;;;;;5106538;28;20087;-75
2022/07/23 03:26:05;;;;;;;4.18;2.72;;;18.80;99.90;;;;;;5107563;28;20035;-75
2022/07/23 03:28:30;;;;;;;7.45;3.20;;;18.80;99.90;;;;;;5106459;28;20082;-75
2022/07/23 03:30:57;;;;;;;5.15;2.45;;;18.80;99.90;;;;;;5105754;28;20034;-75
2022/07/23 03:33:22;;;;;;;3.33;2.42;;;18.90;99.90;;;;;;5105262;28;20056;-75
2022/07/23 03:35:48;;;;;;;3.10;2.80;;;18.90;99.90;;;;;;5087578;28;20023;-75
2022/07/23 03:38:15;;;;;;;4.53;2.40;;;18.90;99.90;;;;;;5087621;28;20027;-75
2022/07/23 03:40:41;;;;;;;3.03;2.83;;;18.90;99.90;;;;;;5106025;28;20079;-75
2022/07/23 03:43:07;;;;;;;3.58;3.28;;;18.90;99.90;;;;;;5086975;28;20020;-75
2022/07/23 03:45:32;;;;;;;2.78;2.55;;;19.00;99.90;;;;;;5087080;28;20035;-75
2022/07/23 03:47:58;;;;;;;2.83;2.55;;;19.00;99.90;;;;;;5105597;28;20020;-75
2022/07/23 03:50:24;;;;;;;6.97;3.00;;;18.90;99.90;;;;;;5087475;28;20181;-75
2022/07/23 03:52:50;;;;;;;6.75;3.22;;;18.80;99.90;;;;;;5105465;28;20024;-75
2022/07/23 03:55:16;;;;;;;3.83;3.08;;;18.90;99.90;;;;;;5105769;28;20385;-75
2022/07/23 03:57:42;;;;;;;3.97;2.53;;;18.90;99.90;;;;;;5105209;28;20526;-75
2022/07/23 04:00:09;;;;;;;3.72;2.28;;;18.90;99.90;;;;;;5105349;28;20016;-75
2022/07/23 04:02:36;;;;;;;5.55;2.35;;;18.90;99.90;;;;;;5105370;28;20024;-75
2022/07/23 04:05:02;;;;;;;2.40;2.30;;;18.90;99.90;;;;;;5104776;28;20034;-75
2022/07/23 04:07:27;;;;;;;6.93;3.00;;;21.10;99.90;;;;;;5104687;28;20055;-75
2022/07/23 04:09:53;;;;;;;14.38;2.75;;;18.90;99.90;;;;;;5087355;28;20024;-75
2022/07/23 04:12:19;;;;;;;6.00;3.67;;;18.90;99.90;;;;;;5105154;28;20343;-75
2022/07/23 04:14:45;;;;;;;3.75;2.35;;;18.90;99.90;;;;;;5087192;28;20260;-75
2022/07/23 04:17:11;;;;;;;2.35;2.10;;;18.90;99.90;;;;;;5104985;28;20032;-75
2022/07/23 04:19:39;;;;;;;3.78;2.28;;;18.90;99.90;;;;;;5104999;28;20364;-75
2022/07/23 04:22:08;;;;;;;2.25;2.05;;;18.90;99.90;;;;;;5086444;28;20035;-75
2022/07/23 04:24:34;;;;;;;2.88;2.30;;;18.90;99.90;;;;;;5105212;28;20311;-75
2022/07/23 04:27:00;;;;;;;2.25;2.13;;;18.80;99.90;;;;;;5104827;28;20040;-75
2022/07/23 04:29:26;;;;;;;2.50;2.30;;;18.80;99.90;;;;;;5086279;28;20215;-75
2022/07/23 04:31:52;;;;;;;2.85;2.60;;;18.90;99.90;;;;;;5104668;28;20338;-75
2022/07/23 04:34:18;;;;;;;4.57;2.42;;;;;;;;;;5086503;28;20058;-75
2022/07/23 04:36:44;;;;;;;2.08;1.90;;;18.80;99.90;;;;;;5105096;28;20059;-75
2022/07/23 04:39:10;;;;;;;4.90;3.55;;;18.80;99.90;;;;;;5104757;28;20020;-75
2022/07/23 04:41:36;;;;;;;5.72;3.80;;;18.90;99.90;;;;;;5086004;28;20200;-75
2022/07/23 04:44:02;;;;;;;4.38;3.97;;;18.90;99.90;;;;;;5104347;28;20304;-75
2022/07/23 04:46:28;;;;;;;5.50;3.80;;;18.90;99.90;;;;;;5104121;28;20031;-76
2022/07/23 04:48:54;;;;;;;2.35;2.15;;;18.90;99.90;;;;;;5086434;28;20033;-75
2022/07/23 04:51:20;;;;;;;3.63;3.35;;;18.90;99.90;;;;;;5104340;28;20020;-75
2022/07/23 04:53:46;;;;;;;3.28;2.78;;;19.00;99.90;;;;;;5103227;28;20048;-75
2022/07/23 04:56:11;;;;;;;4.28;3.42;;;19.10;99.90;;;;;;5104297;28;20062;-75
2022/07/23 04:58:37;;;;;;;6.00;3.17;;;19.10;99.90;;;;;;5104270;28;20030;-75
2022/07/23 05:01:03;;;;;;;4.20;2.65;;;19.10;99.90;;;;;;5086065;28;20027;-75
2022/07/23 05:03:28;;;;;;;10.60;4.38;;;19.30;99.90;;;;;;5085320;28;20367;-75
2022/07/23 05:05:54;;;;;;;4.05;3.25;;;19.20;99.90;;;;;;5086041;28;20074;-75
2022/07/23 05:08:20;;;;;;;3.67;2.60;;;17.90;99.90;;;;;;5103754;28;20027;-76
2022/07/23 05:10:46;;;;;;;4.43;3.03;;;19.40;99.90;;;;;;5104033;28;20020;-75
2022/07/23 05:13:11;;;;;;;2.90;2.58;;;19.50;99.90;;;;;;5104017;28;20016;-75
2022/07/23 05:15:37;;;;;;;3.63;3.33;;;19.70;99.90;;;;;;5103949;28;20057;-75
2022/07/23 05:18:03;;;;;;;3.38;2.60;;;19.80;99.90;;;;;;5103982;28;20031;-75
2022/07/23 05:20:28;;;;;;;2.50;2.30;;;19.90;99.90;;;;;;5103640;28;20043;-75
2022/07/23 05:22:54;;;;;;;1.70;1.60;;;19.90;99.90;;;;;;5103911;28;20028;-75
2022/07/23 05:25:20;;;;;;;2.15;1.92;;;20.00;99.90;;;;;;5103779;28;20100;-75
2022/07/23 05:27:45;;;;;;;2.42;1.58;;;20.00;99.90;;;;;;5103911;28;20297;-75
2022/07/23 05:30:12;;;;;;;2.72;2.05;;;20.00;99.90;;;;;;5086609;28;20034;-76
2022/07/23 05:32:37;;;;;;;2.97;2.20;;;20.00;99.90;;;;;;5103822;28;20077;-76
2022/07/23 05:35:05;;;;;;;2.88;1.80;;;20.00;99.90;;;;;;5103892;28;20032;-75
2022/07/23 05:37:30;;;;;;;2.58;2.10;;;20.00;99.90;;;;;;5085440;28;20020;-75
2022/07/23 05:40:01;;;;;;;1.58;1.48;;;19.90;99.90;;;;;;5085033;28;20030;-75
2022/07/23 05:42:27;;;;;;;2.47;2.13;;;19.90;99.90;;;;;;5103966;28;20287;-75
2022/07/23 05:44:53;;;;;;;1.48;1.42;;;19.80;99.90;;;;;;5103373;28;20024;-75
2022/07/23 05:47:18;;;;;;;17.70;4.20;;;19.90;99.90;;;;;;5103464;28;20091;-75
2022/07/23 05:49:44;;;;;;;1.95;1.60;;;;;;;;;;5103235;28;20016;-75
2022/07/23 05:52:10;;;;;;;3.42;2.25;;;20.00;99.90;;;;;;5103646;28;20189;-76
2022/07/23 05:54:36;;;;;;;2.30;1.63;;;20.10;99.90;;;;;;5084180;28;20036;-75
2022/07/23 05:57:02;;;;;;;2.97;2.67;;;20.10;99.90;;;;;;5102884;28;20378;-75
2022/07/23 05:59:28;;;;;;;2.40;1.63;;;20.20;99.90;;;;;;5084405;28;20027;-75
2022/07/23 06:01:53;;;;;;;3.17;2.00;;;20.30;99.90;;;;;;5101490;28;20114;-76
2022/07/23 06:04:19;;;;;;;4.55;2.10;;;20.40;99.90;;;;;;5093793;28;20050;-76
2022/07/23 06:06:44;;;;;;;4.93;1.73;;;20.60;99.90;;;;;;5093563;28;20044;-77
2022/07/23 06:09:13;;;;;;;3.50;1.73;;;20.60;99.90;;;;;;5075889;28;20464;-76
2022/07/23 06:11:39;;;;;;;1.75;1.55;;;;;;;;;;5102971;28;20016;-79
2022/07/23 06:14:05;;;;;;;1.73;1.63;;;20.80;99.90;;;;;;5099006;28;20028;-73
2022/07/23 06:16:30;;;;;;;3.90;2.00;;;20.90;99.90;;;;;;5093939;28;20027;-77
2022/07/23 06:18:56;;;;;;;3.85;1.58;;;20.90;99.90;;;;;;5093345;28;20020;-77
2022/07/23 06:21:22;;;;;;;2.03;1.70;;;21.00;99.90;;;;;;5093434;28;20103;-78
2022/07/23 06:23:48;;;;;;;2.58;1.77;;;21.10;99.90;;;;;;5093417;28;20031;-76
2022/07/23 06:26:13;;;;;;;1.98;1.15;;;21.20;99.90;;;;;;5093328;28;20529;-76
2022/07/23 06:28:39;;;;;;;4.18;2.50;;;21.10;99.90;;;;;;5093268;28;20032;-76
2022/07/23 06:31:04;;;;;;;4.00;1.58;;;21.20;99.90;;;;;;5075066;28;20020;-77
2022/07/23 06:33:30;;;;;;;1.83;1.70;;;21.20;99.90;;;;;;5075216;28;20089;-75
2022/07/23 06:35:56;;;;;;;2.78;1.77;;;21.20;99.90;;;;;;5093090;28;20166;-77
2022/07/23 06:38:21;;;;;;;2.60;2.40;;;21.30;99.90;;;;;;5093203;28;20082;-77
2022/07/23 06:40:47;;;;;;;1.98;1.88;;;21.30;99.90;;;;;;5093025;28;20027;-76
2022/07/23 06:43:15;;;;;;;2.08;1.33;;;21.30;99.90;;;;;;5093126;28;20024;-76
2022/07/23 06:45:41;;;;;;;1.77;1.55;;;;;;;;;;5093103;28;20040;-76
2022/07/23 06:48:07;;;;;;;1.60;1.50;;;21.10;99.90;;;;;;5075073;28;20427;-77
2022/07/23 06:50:33;;;;;;;2.72;1.38;;;21.20;99.90;;;;;;5093165;28;20081;-77
2022/07/23 06:52:59;;;;;;;3.40;2.15;;;;;;;;;;5074976;28;20031;-80
2022/07/23 06:55:24;;;;;;;2.13;1.50;;;21.40;99.90;;;;;;5093023;28;20457;-80
2022/07/23 06:57:50;;;;;;;3.15;1.73;;;21.40;99.90;;;;;;5093257;28;20115;-83
2022/07/23 07:00:16;;;;;;;3.00;1.95;;;21.50;99.90;;;;;;5075810;28;20068;-76
2022/07/23 07:02:42;;;;;;;2.15;1.77;;;;;;;;;;5080180;28;20020;-76
2022/07/23 07:05:07;;;;;;;1.83;1.35;;;22.00;99.90;;;;;;5080504;28;20023;-76
2022/07/23 07:07:34;;;;;;;2.00;1.38;;;22.20;99.90;;;;;;5097477;28;20031;-74
2022/07/23 07:10:00;;;;;;;2.88;2.10;;;;;;;;;;5079325;28;20024;-74
2022/07/23 07:12:26;;;;;;;1.65;1.55;;;22.40;99.90;;;;;;5092766;28;20482;-75
2022/07/23 07:14:53;;;;;;;1.90;1.25;;;22.70;99.90;;;;;;5074458;28;20052;-74
2022/07/23 07:17:19;;;;;;;1.35;1.25;;;23.10;99.90;;;;;;5074643;28;20048;-74
2022/07/23 07:19:45;;;;;;;19.17;1.95;;;;;;;;;;5092735;28;20052;-74
2022/07/23 07:22:10;;;;;;;5.47;1.42;;;25.20;99.90;;;;;;5093112;28;20029;-75
2022/07/23 07:24:36;;;;;;;1.52;1.42;;;25.60;99.90;;;;;;5074570;28;20032;-74
2022/07/23 07:27:02;;;;;;;1.25;1.13;;;25.70;99.90;;;;;;5092335;28;20063;-74
2022/07/23 07:29:28;;;;;;;1.42;1.33;;;26.20;99.90;;;;;;5092703;28;20046;-76
2022/07/23 07:31:54;;;;;;;2.17;1.58;;;26.20;99.90;;;;;;5092511;28;20384;-74
2022/07/23 07:34:20;;;;;;;8.93;1.83;;;;;;;;;;5074177;28;20108;-74
2022/07/23 07:36:45;;;;;;;1.23;1.13;;;24.90;99.90;;;;;;5074210;28;20024;-74
2022/07/23 07:39:11;;;;;;;1.80;1.60;;;24.80;99.90;;;;;;5074495;28;20434;-74
2022/07/23 07:41:37;;;;;;;0.98;0.90;;;24.50;99.90;;;;;;5095500;28;20024;-74
2022/07/23 07:44:02;;;;;;;2.25;1.27;;;24.00;99.90;;;;;;5096327;28;20048;-74
2022/07/23 07:46:28;;;;;;;1.58;1.35;;;23.60;99.90;;;;;;5096276;28;20056;-74
2022/07/23 07:48:54;;;;;;;1.40;1.33;;;23.60;99.90;;;;;;5096340;28;20024;-74
2022/07/23 07:51:20;;;;;;;1.35;1.35;;;23.50;99.90;;;;;;5096048;28;20020;-75
2022/07/23 07:53:45;;;;;;;5.72;1.85;;;23.50;99.90;;;;;;5095752;28;20027;-74
2022/07/23 07:56:11;;;;;;;1.88;1.45;;;23.60;99.90;;;;;;5095842;28;20020;-75
2022/07/23 07:58:36;;;;;;;1.83;1.42;;;23.80;99.90;;;;;;5095857;28;20028;-74
2022/07/23 08:01:03;;;;;;;4.00;2.50;;;23.90;99.90;;;;;;5077681;28;20059;-74
2022/07/23 08:03:29;;;;;;;1.92;1.52;;;24.20;99.90;;;;;;5095796;28;20036;-75
2022/07/23 08:05:55;;;;;;;2.70;1.98;;;24.30;99.90;;;;;;5095586;28;20045;-74
2022/07/23 08:08:21;;;;;;;1.38;1.27;;;24.70;99.90;;;;;;5077699;28;20480;-75
2022/07/23 08:10:46;;;;;;;1.08;1.05;;;24.80;99.90;;;;;;5095908;28;20027;-74
2022/07/23 08:13:15;;;;;;;0.90;0.90;;;24.30;99.90;;;;;;5095826;28;20407;-74
2022/07/23 08:15:41;;;;;;;3.60;1.98;;;24.30;99.90;;;;;;5095591;28;20043;-74
2022/07/23 08:18:06;;;;;;;4.75;2.67;;;24.70;99.90;;;;;;5095447;28;20020;-74
2022/07/23 08:20:32;;;;;;;1.48;1.38;;;24.90;99.90;;;;;;5095565;28;20380;-74
2022/07/23 08:23:04;;;;;;;3.90;1.90;;;25.10;99.90;;;;;;5077329;28;20437;-74
2022/07/23 08:25:36;;;;;;;3.70;1.50;;;25.50;99.90;;;;;;5095369;28;20024;-74
2022/07/23 08:28:03;;;;;;;13.70;1.98;;;25.50;99.90;;;;;;5095681;28;20049;-74
2022/07/23 08:30:30;;;;;;;2.00;1.88;;;25.50;99.90;;;;;;5095266;28;20472;-74
2022/07/23 08:33:01;;;;;;;1.85;1.75;;;25.70;99.90;;;;;;5095098;28;20453;-75
2022/07/23 08:35:31;;;;;;;1.08;1.02;;;25.90;99.90;;;;;;5095188;28;20063;-74
2022/07/23 08:37:58;;;;;;;2.65;2.28;;;25.90;99.90;;;;;;5095003;28;20111;-74
2022/07/23 08:40:27;;;;;;;2.95;2.20;;;25.90;99.90;;;;;;5095112;28;20028;-75
2022/07/23 08:42:52;;;;;;;;;;;25.90;99.90;;;;;;5095497;28;20103;-73
2022/07/23 08:45:23;;;;;;;1.00;1.00;;;25.60;99.90;;;;;;5095099;28;20532;-75
2022/07/23 08:47:55;;;;;;;1.73;1.52;;;25.50;99.90;;;;;;5094925;28;20032;-74
2022/07/23 08:50:22;;;;;;;1.48;1.10;;;28.80;99.90;;;;;;5094608;28;20024;-74
2022/07/23 08:52:50;;;;;;;1.98;0.80;;;25.80;99.90;;;;;;5093528;28;20051;-75
2022/07/23 08:55:20;;;;;;;1.50;1.20;;;26.30;99.90;;;;;;5072853;28;20506;-74
2022/07/23 08:57:51;;;;;;;1.45;1.30;;;26.30;99.90;;;;;;5073130;28;20028;-74
2022/07/23 09:00:18;;;;;;;5.88;1.88;;;26.40;99.90;;;;;;5074428;28;20048;-74
2022/07/23 09:02:45;;;;;;;1.55;1.45;;;26.10;99.90;;;;;;5074420;28;20021;-74
2022/07/23 09:05:12;;;;;;;2.40;1.40;;;26.20;99.90;;;;;;5074323;28;20024;-74
2022/07/23 09:07:58;;;;;;;1.05;0.95;;;26.30;99.90;;;;;;5074311;28;20036;-74
2022/07/23 09:10:24;;;;;;;1.75;1.65;;;26.40;99.90;;;;;;5072796;28;20043;-74
2022/07/23 09:12:49;;;;;;;1.35;1.17;;;26.30;99.90;;;;;;5073844;28;20363;-74
2022/07/23 09:15:15;;;;;;;1.73;1.05;;;26.40;99.90;;;;;;5074043;28;20024;-74
2022/07/23 09:17:42;;;;;;;1.85;1.23;;;26.60;99.90;;;;;;5073969;28;20136;-74
2022/07/23 09:20:11;;;;;;;1.83;1.73;;;26.80;99.90;;;;;;5074098;28;20078;-74
2022/07/23 09:22:37;;;;;;;1.30;1.20;;;27.90;99.90;;;;;;5073919;28;20043;-74
2022/07/23 09:25:17;;;;;;;2.72;1.15;;;28.10;99.90;;;;;;5074053;28;20032;-74
2022/07/23 09:27:54;;;;;;;2.67;1.35;;;28.00;99.90;;;;;;5073960;28;20460;-75
2022/07/23 09:30:28;;;;;;;2.63;1.58;;;27.90;99.90;;;;;;5074048;28;20025;-74
2022/07/23 09:33:05;;;;;;;2.28;1.50;;;27.50;99.90;;;;;;5072425;28;20023;-74
2022/07/23 09:35:48;;;;;;;3.80;1.25;;;27.40;99.90;;;;;;5072422;28;20025;-74
2022/07/23 09:38:15;;;;;;;3.22;1.27;;;27.00;99.90;;;;;;5073614;28;20024;-74
2022/07/23 09:40:41;;;;;;;2.67;1.33;;;26.70;99.90;;;;;;5072344;28;20025;-74
2022/07/23 09:43:08;;;;;;;1.17;1.08;;;26.80;99.90;;;;;;5073623;28;20016;-74
2022/07/23 09:45:34;;;;;;;2.83;1.30;;;27.10;99.90;;;;;;5072685;28;20451;-75
2022/07/23 09:48:16;;;;;;;2.75;1.85;;;27.40;99.90;;;;;;5072286;28;20025;-74
2022/07/23 09:50:43;;;;;;;4.68;1.88;;;27.90;99.90;;;;;;5073382;28;20028;-74
2022/07/23 09:53:23;;;;;;;1.52;1.42;;;27.90;99.90;;;;;;5072359;28;20472;-75
2022/07/23 09:55:49;;;;;;;2.17;1.48;;;28.20;99.90;;;;;;5071945;28;20142;-74
2022/07/23 09:58:17;;;;;;;3.10;2.00;;;28.20;99.90;;;;;;5073204;28;20021;-74
2022/07/23 10:00:44;;;;;;;1.20;1.10;;;28.10;99.90;;;;;;5071950;28;20020;-74
2022/07/23 10:03:12;;;;;;;2.63;1.55;;;28.10;99.90;;;;;;5073186;28;20031;-78
2022/07/23 10:05:39;;;;;;;5.07;1.50;;;28.30;99.90;;;;;;5073327;28;20102;-80
2022/07/23 10:08:08;;;;;;;0.88;0.88;;;28.70;99.90;;;;;;5073410;28;20085;-79
2022/07/23 10:10:34;;;;;;;2.70;0.77;;;28.70;99.90;;;;;;5073292;28;20492;-80
2022/07/23 10:13:17;;;;;;;3.53;1.50;;;28.80;99.90;;;;;;5073160;28;20032;-79
2022/07/23 10:15:43;;;;;;;0.98;0.90;;;28.60;99.90;;;;;;5071783;28;20021;-79
2022/07/23 10:18:11;;;;;;;1.13;1.13;;;28.60;99.90;;;;;;5073376;28;20028;-74
2022/07/23 10:20:40;;;;;;;2.08;0.95;;;28.70;99.90;;;;;;5073025;28;20032;-74
2022/07/23 10:23:20;;;;;;;1.92;1.52;;;28.70;99.90;;;;;;5073017;28;20473;-74
2022/07/23 10:25:51;;;;;;;2.90;1.88;;;28.20;99.90;;;;;;5072923;28;20059;-75
2022/07/23 10:28:22;;;;;;;1.65;1.17;;;28.50;99.90;;;;;;5073098;28;20052;-74
2022/07/23 10:31:23;;;;;;;1.50;1.40;;;28.50;99.90;;;;;;5073184;28;20020;-76
2022/07/23 10:34:00;;;;;;;0.70;0.70;;;28.60;99.90;;;;;;5072993;28;20100;-75
2022/07/23 10:36:52;;;;;;;2.45;1.33;;;28.90;99.90;;;;;;5071685;28;20069;-74
2022/07/23 10:39:22;;;;;;;6.95;1.90;;;29.10;99.90;;;;;;5070527;28;20033;-74
2022/07/23 10:41:48;;;;;;;2.00;1.50;;;28.80;99.90;;;;;;5071530;28;20020;-75
2022/07/23 10:44:19;;;;;;;20.42;2.55;;;29.00;99.90;;;;;;5072754;28;20043;-76
2022/07/23 10:49:32;;;;;;;1.50;1.40;;;28.50;99.90;;;;;;5073203;28;20024;-74
2022/07/23 10:52:13;;;;;;;1.17;1.10;;;28.40;99.90;;;;;;5071430;28;20031;-75
2022/07/23 10:54:40;;;;;;;1.02;0.98;;;28.50;99.90;;;;;;5071341;28;20044;-74
2022/07/23 10:57:07;;;;;;;1.15;1.05;;;28.70;99.90;;;;;;5072606;28;20485;-75
2022/07/23 11:00:02;;;;;;;1.42;1.33;;;29.60;99.90;;;;;;5071317;28;20220;-75
2022/07/23 11:02:31;;;;;;;0.88;0.88;;;30.30;93.40;;;;;;5071230;28;20021;-74
2022/07/23 11:05:03;;;;;;;1.92;1.83;;;30.10;90.60;;;;;;5071479;28;20062;-75
2022/07/23 11:07:28;;;;;;;0.55;0.55;;;29.30;96.90;;;;;;5072698;28;20115;-74
2022/07/23 11:09:54;;;;;;;1.73;1.60;;;28.60;99.90;;;;;;5072771;28;20105;-74
2022/07/23 11:12:23;;;;;;;4.95;2.20;;;28.50;99.90;;;;;;5072839;28;20086;-75
2022/07/23 11:15:01;;;;;;;1.52;1.52;;;28.20;99.90;;;;;;5072914;28;20031;-77
2022/07/23 11:17:27;;;;;;;1.77;1.65;;;28.00;99.90;;;;;;5075175;28;20036;-79
2022/07/23 11:20:12;;;;;;;3.33;1.52;;;28.70;99.90;;;;;;5076286;28;20488;-75
2022/07/23 11:22:44;;;;;;;1.25;1.23;;;29.00;97.40;;;;;;5076245;28;20021;-74
2022/07/23 11:25:11;;;;;;;1.38;0.98;;;29.70;95.10;;;;;;5075004;28;20025;-75
2022/07/23 11:27:45;;;;;;;2.55;1.10;;;30.00;86.50;;;;;;5075079;28;20035;-75
2022/07/23 11:30:31;;;;;;;1.02;0.80;;;30.90;73.90;;;;;;5075000;28;20020;-74
2022/07/23 11:33:09;;;;;;;3.08;1.52;;;30.90;76.00;;;;;;5076110;28;20020;-74
2022/07/23 11:35:36;;;;;;;1.58;1.00;;;31.10;79.30;;;;;;5076134;28;20031;-74
2022/07/23 11:38:14;;;;;;;1.88;1.00;;;30.00;81.00;;;;;;5076107;28;20115;-75
2022/07/23 11:40:39;;;;;;;2.22;1.70;;;29.90;84.50;;;;;;5074871;28;20039;-75
2022/07/23 11:43:10;;;;;;;1.63;1.52;;;29.90;87.30;;;;;;5075726;28;20032;-74
2022/07/23 11:45:41;;;;;;;1.65;1.00;;;30.50;83.90;;;;;;5075861;28;20064;-74
2022/07/23 11:48:09;;;;;;;1.65;1.35;;;31.30;73.10;;;;;;5076129;28;20021;-74
2022/07/23 11:50:36;;;;;;;1.00;1.00;;;32.00;70.60;;;;;;5075925;28;20420;-79
2022/07/23 11:53:02;;;;;;;1.35;1.25;;;31.80;65.50;;;;;;5074649;28;20059;-75
2022/07/23 11:55:28;;;;;;;0.80;0.70;;;31.80;67.00;;;;;;5091925;28;20055;-77
2022/07/23 11:57:56;;;;;;;1.35;1.23;;;31.60;67.10;;;;;;5077625;28;20023;-75
2022/07/23 12:00:25;;;;;;;2.65;2.10;;;31.80;71.50;;;;;;5095870;28;20480;-75
2022/07/23 12:02:53;;;;;;;0.88;0.88;;;33.00;67.90;;;;;;5077576;28;20052;-74
2022/07/23 12:05:20;;;;;;;0.68;0.63;;;33.00;60.00;;;;;;5077641;28;20476;-74
2022/07/23 12:07:51;;;;;;;1.40;1.30;;;32.70;61.50;;;;;;5095920;28;20480;-74
2022/07/23 12:10:35;;;;;;;0.70;0.70;;;32.50;60.40;;;;;;5077722;28;20085;-74
2022/07/23 12:13:05;;;;;;;0.98;0.98;;;32.00;60.40;;;;;;5077380;28;20027;-73
2022/07/23 12:15:32;;;;;;;1.92;0.93;;;32.60;61.10;;;;;;5095637;28;20066;-74
2022/07/23 12:18:00;;;;;;;0.82;0.82;;;32.70;58.60;;;;;;5077299;28;20016;-73
2022/07/23 12:21:00;;;;;;;1.13;1.13;;;31.80;60.00;;;;;;5095363;28;20020;-74
2022/07/23 12:23:27;;;;;;;0.73;0.73;;;31.60;59.60;;;;;;5095287;28;20085;-74
2022/07/23 12:25:53;;;;;;;5.47;1.58;;;31.20;60.30;;;;;;5077243;28;20033;-75
2022/07/23 12:28:32;;;;;;;0.52;0.52;;;31.20;62.40;;;;;;5077356;28;20032;-75
2022/07/23 12:30:58;;;;;;;;;;;31.10;58.60;;;;;;5095822;28;20016;-74
2022/07/23 12:33:25;;;;;;;0.65;0.40;;;31.50;59.10;;;;;;5095054;28;19904;-74
2022/07/23 12:35:53;;;;;;;1.27;1.17;;;32.20;57.90;;;;;;5095117;28;20055;-76
2022/07/23 12:38:22;;;;;;;0.77;0.77;;;32.70;56.80;;;;;;5095002;28;20051;-75
2022/07/23 12:40:49;;;;;;;2.92;0.95;;;33.00;56.70;;;;;;5095102;28;20031;-74
2022/07/23 12:43:36;;;;;;;0.63;0.63;;;32.90;55.40;;;;;;5095186;28;20071;-78
2022/07/23 12:46:10;;;;;;;1.38;0.80;;;33.10;54.60;;;;;;5095410;28;20024;-73
2022/07/23 12:48:40;;;;;;;1.02;0.70;;;32.40;54.90;;;;;;5095037;28;20103;-74
2022/07/23 12:51:07;;;;;;;1.15;1.05;;;32.00;57.20;;;;;;5094999;28;20031;-74
2022/07/23 12:53:42;;;;;;;1.02;0.77;;;32.30;56.40;;;;;;5076286;28;20066;-74
2022/07/23 12:56:14;;;;;;;0.98;0.85;;;32.10;55.20;;;;;;5094825;28;20028;-74